Forside
METAR-TAF:

METAR-TAF

Lufthavne :

Des Moines, Iowa, USA

Breddekreds: 41-32-16N, længdekreds: 093-39-58W, højde: 291 m

Aktuelle vejr

Denne rapport blev lavet for 1 time og 4 minutter siden, kl. 18:54 UTC
Vind 11 kt fra sydsydvest
Temperatur 10°C
Fugtighed 43%
Tryk 1017 hPa
Sigt: 16.1 km
Nogle få skyer i en højde af 18000 ft
Spredte skyer i en højde af 25000 ft

METAR: KDSM 221854Z 20011KT 10SM FEW180 SCT250 10/M02 A3004 RMK AO2 SLP180 T01001022

Tid: 13:58 (19:58 UTC)

Vejrudsigter

Denne rapport blev lavet for 2 timer og 38 minutter siden, kl. 17:20 UTC
Foreløbig gælder fra 22 på 18 UTC til 23 på 18 UTC
Vind 10 kt fra sydsydvest
Sigt: 10 km
Nogle få skyer i en højde af 25000 ft
Fra 23 på 1100 UTC
Vind 3 kt fra varierende retninger
Sigt: 10 km
Brudte skyer i en højde af 15000 ft

TAF: KDSM 221720Z 2218/2318 21010KT P6SM FEW250 FM231100 VRB03KT P6SM BKN150

Vejrobservationer og prognoser fra mere end 4000 lufthavne (METAR og TAF).

De gule og røde prikker repræsenterer de meteorologiske stationer.

Flyt musen over at se navnet på stationen.

Så klik over at se vejr observationer og prognoser.

At skifte det kort: Klik på de grønne knapper med et sort kors for at zoome ind; på den grønne knap med en bindestreg for at zoome ud; eller på de grønne pile for tilstødende kort.


METAR-TAF: